createdAt,value
2019-06-08T00:02:25.765Z,2.30
2019-06-08T00:04:57.332Z,2.13
2019-06-08T00:07:27.720Z,3.27
2019-06-08T00:09:57.885Z,2.67
2019-06-08T00:12:28.569Z,2.60
2019-06-08T00:14:58.945Z,2.77
2019-06-08T00:17:38.065Z,2.60
2019-06-08T00:20:02.139Z,2.30
2019-06-08T00:22:32.272Z,2.30
2019-06-08T00:25:03.496Z,2.50
2019-06-08T00:27:33.624Z,2.50
2019-06-08T00:30:04.456Z,2.53
2019-06-08T00:32:34.574Z,2.50
2019-06-08T00:35:05.039Z,2.80
2019-06-08T00:37:35.402Z,3.13
2019-06-08T00:40:06.023Z,2.20
2019-06-08T00:42:36.206Z,2.50
2019-06-08T00:45:06.909Z,2.93
2019-06-08T00:47:47.393Z,2.40
2019-06-08T00:50:09.663Z,3.13
2019-06-08T00:52:39.870Z,2.93
2019-06-08T00:55:10.644Z,3.13
2019-06-08T00:57:40.885Z,2.97
2019-06-08T01:00:11.788Z,2.70
2019-06-08T01:02:42.398Z,3.00
2019-06-08T01:05:12.985Z,3.00
2019-06-08T01:07:43.095Z,2.90
2019-06-08T01:10:13.679Z,2.60
2019-06-08T01:12:43.917Z,2.80
2019-06-08T01:15:15.136Z,2.37
2019-06-08T01:18:01.329Z,1.93
2019-06-08T01:20:17.597Z,2.93
2019-06-08T01:22:48.708Z,2.77
2019-06-08T01:25:20.207Z,2.40
2019-06-08T01:27:50.944Z,2.60
2019-06-08T01:30:22.132Z,2.30
2019-06-08T01:32:52.737Z,2.27
2019-06-08T01:35:22.954Z,2.50
2019-06-08T01:37:53.410Z,2.73
2019-06-08T01:40:25.276Z,2.67
2019-06-08T01:42:55.796Z,2.20
2019-06-08T01:45:33.375Z,2.37
2019-06-08T01:48:18.573Z,2.90
2019-06-08T01:50:37.475Z,2.43
2019-06-08T01:53:07.735Z,3.00
2019-06-08T01:55:38.018Z,3.80
2019-06-08T01:58:09.554Z,2.80
2019-06-08T02:00:41.592Z,2.77
2019-06-08T02:03:12.538Z,3.00
2019-06-08T02:05:42.980Z,2.30
2019-06-08T02:08:16.108Z,2.37
2019-06-08T02:10:46.604Z,2.20
2019-06-08T02:13:17.055Z,2.43
2019-06-08T02:15:47.668Z,2.03
2019-06-08T02:18:18.120Z,2.90
2019-06-08T02:20:48.470Z,2.53
2019-06-08T02:23:18.676Z,2.10
2019-06-08T02:25:49.040Z,2.47
2019-06-08T02:28:19.600Z,1.90
2019-06-08T02:30:50.233Z,2.07
2019-06-08T02:33:20.693Z,2.20
2019-06-08T02:35:51.267Z,2.47
2019-06-08T02:38:21.597Z,3.43
2019-06-08T02:40:52.397Z,2.23
2019-06-08T02:43:22.978Z,2.00
2019-06-08T02:45:53.137Z,2.17
2019-06-08T02:48:23.528Z,2.13
2019-06-08T02:50:56.379Z,2.40
2019-06-08T02:53:29.400Z,2.50
2019-06-08T02:56:00.459Z,2.83
2019-06-08T02:58:35.712Z,2.33
2019-06-08T03:01:06.341Z,1.93
2019-06-08T03:03:38.370Z,2.90
2019-06-08T03:06:09.583Z,3.27
2019-06-08T03:08:43.511Z,3.00
2019-06-08T03:11:12.714Z,2.40
2019-06-08T03:13:45.076Z,2.60
2019-06-08T03:16:15.184Z,2.43
2019-06-08T03:18:46.176Z,1.83
2019-06-08T03:21:16.583Z,2.77
2019-06-08T03:23:47.186Z,2.33
2019-06-08T03:26:17.616Z,2.13
2019-06-08T03:28:48.481Z,2.60
2019-06-08T03:31:18.829Z,2.80
2019-06-08T03:33:54.889Z,2.53
2019-06-08T03:36:21.322Z,2.67
2019-06-08T03:38:51.482Z,3.60
2019-06-08T03:41:21.769Z,3.20
2019-06-08T03:43:52.039Z,2.27
2019-06-08T03:46:22.501Z,3.20
2019-06-08T03:48:52.950Z,3.10
2019-06-08T03:51:23.035Z,2.40
2019-06-08T03:53:53.597Z,2.87
2019-06-08T03:56:23.926Z,2.60
2019-06-08T03:58:54.297Z,2.70
2019-06-08T04:01:24.749Z,2.60
2019-06-08T04:03:59.569Z,2.80
2019-06-08T04:06:27.089Z,2.83
2019-06-08T04:08:57.288Z,3.00
2019-06-08T04:11:27.449Z,2.40
2019-06-08T04:13:57.753Z,2.70
2019-06-08T04:16:28.299Z,2.40
2019-06-08T04:18:58.493Z,3.20
2019-06-08T04:21:28.720Z,2.87
2019-06-08T04:23:59.175Z,2.40
2019-06-08T04:26:30.141Z,2.80
2019-06-08T04:29:00.752Z,3.47
2019-06-08T04:31:31.021Z,3.10
2019-06-08T04:34:01.263Z,3.40
2019-06-08T04:36:31.394Z,2.50
2019-06-08T04:39:01.492Z,3.17
2019-06-08T04:41:31.654Z,3.37
2019-06-08T04:44:01.806Z,2.87
2019-06-08T04:46:31.795Z,3.03
2019-06-08T04:49:01.832Z,2.70
2019-06-08T04:51:31.894Z,3.27
2019-06-08T04:54:02.126Z,3.10
2019-06-08T04:56:32.637Z,3.20
2019-06-08T04:59:03.018Z,3.30
2019-06-08T05:01:33.130Z,3.50
2019-06-08T05:04:03.354Z,3.00
2019-06-08T05:06:33.669Z,3.20
2019-06-08T05:09:04.685Z,2.80
2019-06-08T05:11:36.390Z,2.90
2019-06-08T05:14:07.148Z,2.90
2019-06-08T05:16:37.189Z,2.50
2019-06-08T05:19:07.437Z,2.77
2019-06-08T05:21:39.372Z,3.60
2019-06-08T05:24:09.742Z,2.90
2019-06-08T05:26:41.345Z,2.37
2019-06-08T05:29:11.884Z,3.17
2019-06-08T05:31:43.500Z,2.83
2019-06-08T05:34:13.801Z,2.80
2019-06-08T05:36:44.016Z,2.90
2019-06-08T05:39:14.232Z,2.27
2019-06-08T05:41:45.492Z,3.43
2019-06-08T05:44:15.724Z,2.30
2019-06-08T05:46:46.013Z,2.63
2019-06-08T05:49:16.377Z,2.93
2019-06-08T05:51:47.785Z,2.80
2019-06-08T05:54:18.247Z,3.33
2019-06-08T05:56:48.391Z,3.03
2019-06-08T05:59:18.566Z,2.40
2019-06-08T06:01:50.837Z,2.93
2019-06-08T06:04:21.052Z,2.73
2019-06-08T06:06:52.092Z,3.30
2019-06-08T06:09:22.381Z,4.10
2019-06-08T06:11:52.704Z,4.67
2019-06-08T06:14:22.809Z,3.93
2019-06-08T06:16:53.025Z,4.83
2019-06-08T06:19:23.561Z,4.03
2019-06-08T06:21:53.931Z,2.77
2019-06-08T06:24:24.142Z,3.60
2019-06-08T06:26:54.334Z,5.50
2019-06-08T06:29:25.358Z,4.53
2019-06-08T06:31:55.472Z,4.60
2019-06-08T06:34:25.797Z,6.70
2019-06-08T06:36:57.506Z,3.83
2019-06-08T06:39:27.880Z,5.00
2019-06-08T06:41:58.770Z,4.00
2019-06-08T06:44:29.001Z,3.60
2019-06-08T06:46:59.339Z,4.33
2019-06-08T06:49:29.453Z,4.50
2019-06-08T06:51:59.869Z,4.10
2019-06-08T06:54:30.047Z,4.40
2019-06-08T06:57:01.328Z,3.10
2019-06-08T06:59:31.811Z,3.37
2019-06-08T07:02:01.991Z,3.30
2019-06-08T07:04:32.286Z,4.20
2019-06-08T07:07:02.797Z,3.83
2019-06-08T07:09:32.894Z,4.00
2019-06-08T07:12:03.864Z,3.30
2019-06-08T07:14:34.081Z,4.90
2019-06-08T07:17:04.745Z,5.03
2019-06-08T07:19:35.135Z,4.90
2019-06-08T07:22:05.527Z,4.07
2019-06-08T07:24:35.911Z,4.20
2019-06-08T07:27:07.604Z,3.60
2019-06-08T07:29:38.258Z,4.57
2019-06-08T07:32:08.602Z,4.00
2019-06-08T07:34:41.137Z,4.17
2019-06-08T07:37:10.767Z,4.77
2019-06-08T07:39:40.835Z,4.63
2019-06-08T07:42:11.212Z,4.03
2019-06-08T07:44:41.508Z,3.97
2019-06-08T07:47:11.910Z,4.70
2019-06-08T07:49:42.046Z,4.53
2019-06-08T07:52:12.798Z,3.83
2019-06-08T07:54:43.136Z,4.20
2019-06-08T07:57:13.521Z,3.40
2019-06-08T07:59:43.880Z,3.67
2019-06-08T08:02:13.966Z,3.60
2019-06-08T08:04:44.200Z,3.70
2019-06-08T08:07:14.760Z,3.77
2019-06-08T08:09:45.028Z,2.93
2019-06-08T08:12:15.229Z,4.13
2019-06-08T08:14:45.742Z,3.67
2019-06-08T08:17:15.977Z,4.00
2019-06-08T08:19:46.587Z,4.40
2019-06-08T08:22:22.950Z,3.87
2019-06-08T08:24:52.468Z,3.50
2019-06-08T08:27:20.912Z,4.20
2019-06-08T08:29:51.401Z,4.33
2019-06-08T08:32:22.043Z,4.37
2019-06-08T08:34:53.767Z,3.43
2019-06-08T08:37:24.254Z,4.00
2019-06-08T08:39:55.577Z,3.63
2019-06-08T08:42:27.086Z,3.90
2019-06-08T08:45:02.661Z,4.07
2019-06-08T08:47:30.760Z,4.00
2019-06-08T08:50:02.175Z,3.57
2019-06-08T08:52:37.194Z,4.33
2019-06-08T08:55:04.917Z,4.20
2019-06-08T08:57:35.308Z,3.50
2019-06-08T09:00:08.591Z,4.53
2019-06-08T09:02:38.920Z,4.00
2019-06-08T09:05:09.762Z,3.50
2019-06-08T09:07:40.016Z,4.50
2019-06-08T09:10:11.840Z,4.70
2019-06-08T09:12:42.304Z,3.60
2019-06-08T09:15:12.672Z,3.30
2019-06-08T09:17:42.805Z,4.30
2019-06-08T09:20:15.862Z,3.70
2019-06-08T09:22:53.719Z,4.30
2019-06-08T09:25:18.307Z,3.70
2019-06-08T09:27:48.757Z,3.43
2019-06-08T09:30:19.566Z,3.43
2019-06-08T09:32:49.637Z,3.33
2019-06-08T09:35:21.267Z,3.40
2019-06-08T09:37:53.193Z,3.83
2019-06-08T09:40:25.911Z,4.67
2019-06-08T09:42:58.317Z,3.43
2019-06-08T09:45:28.940Z,3.93
2019-06-08T09:48:01.594Z,3.63
2019-06-08T09:50:31.057Z,3.77
2019-06-08T09:53:18.421Z,3.17
2019-06-08T09:55:33.161Z,2.90
2019-06-08T09:58:07.549Z,3.93
2019-06-08T10:00:37.700Z,4.80
2019-06-08T10:03:09.427Z,2.50
2019-06-08T10:05:39.291Z,4.00
2019-06-08T10:08:09.812Z,3.87
2019-06-08T10:10:40.548Z,4.20
2019-06-08T10:13:11.440Z,4.10
2019-06-08T10:15:41.688Z,3.67
2019-06-08T10:18:12.718Z,3.33
2019-06-08T10:20:43.980Z,3.77
2019-06-08T10:23:30.251Z,3.30
2019-06-08T10:25:48.181Z,3.80
2019-06-08T10:28:21.572Z,6.60
2019-06-08T10:30:50.752Z,4.70
2019-06-08T10:33:21.291Z,3.40
2019-06-08T10:35:52.104Z,5.23
2019-06-08T10:38:22.532Z,4.00
2019-06-08T10:41:13.148Z,3.97
2019-06-08T10:43:35.168Z,3.70
2019-06-08T10:46:12.057Z,4.50
2019-06-08T10:48:39.489Z,4.00
2019-06-08T10:51:12.590Z,4.00
2019-06-08T10:53:49.226Z,6.93
2019-06-08T10:56:14.628Z,4.53
2019-06-08T10:58:49.453Z,4.10
2019-06-08T11:01:18.829Z,4.87
2019-06-08T11:03:49.535Z,5.03
2019-06-08T11:06:20.407Z,4.17
2019-06-08T11:08:50.633Z,3.43
2019-06-08T11:11:20.960Z,4.40
2019-06-08T11:13:51.697Z,6.40
2019-06-08T11:16:22.337Z,5.60
2019-06-08T11:18:52.578Z,4.27
2019-06-08T11:21:22.918Z,5.60
2019-06-08T11:24:07.501Z,3.57
2019-06-08T11:26:28.279Z,3.90
2019-06-08T11:28:58.594Z,5.00
2019-06-08T11:31:32.086Z,4.43
2019-06-08T11:34:02.664Z,5.33
2019-06-08T11:36:32.969Z,8.27
2019-06-08T11:39:04.349Z,4.53
2019-06-08T11:41:34.925Z,9.87
2019-06-08T11:44:07.132Z,4.30
2019-06-08T11:46:38.451Z,5.57
2019-06-08T11:49:13.480Z,3.83
2019-06-08T11:51:41.681Z,7.50
2019-06-08T11:54:27.111Z,6.53
2019-06-08T11:56:45.144Z,5.60
2019-06-08T11:59:16.589Z,8.90
2019-06-08T12:01:50.282Z,4.53
2019-06-08T12:04:18.841Z,5.33
2019-06-08T12:06:49.099Z,3.90
2019-06-08T12:09:19.997Z,5.50
2019-06-08T12:11:51.033Z,5.93
2019-06-08T12:14:21.272Z,4.17
2019-06-08T12:16:51.396Z,3.73
2019-06-08T12:19:21.645Z,4.27
2019-06-08T12:21:51.864Z,3.80
2019-06-08T12:24:22.052Z,4.10
2019-06-08T12:26:58.953Z,4.80
2019-06-08T12:29:24.179Z,4.70
2019-06-08T12:31:54.454Z,4.20
2019-06-08T12:34:24.696Z,3.77
2019-06-08T12:36:54.927Z,5.00
2019-06-08T12:39:25.335Z,5.00
2019-06-08T12:41:55.628Z,4.27
2019-06-08T12:44:29.059Z,5.40
2019-06-08T12:46:58.822Z,3.73
2019-06-08T12:49:29.049Z,3.83
2019-06-08T12:51:59.342Z,3.90
2019-06-08T12:54:29.639Z,5.30
2019-06-08T12:57:00.744Z,5.10
2019-06-08T12:59:31.200Z,4.60
2019-06-08T13:02:01.382Z,4.30
2019-06-08T13:04:31.581Z,3.83
2019-06-08T13:07:01.938Z,3.53
2019-06-08T13:09:32.120Z,4.17
2019-06-08T13:12:02.236Z,4.60
2019-06-08T13:14:32.388Z,3.97
2019-06-08T13:17:03.819Z,4.40
2019-06-08T13:19:34.179Z,4.33
2019-06-08T13:22:04.465Z,3.33
2019-06-08T13:24:34.833Z,4.70
2019-06-08T13:27:06.267Z,4.60
2019-06-08T13:29:36.629Z,4.20
2019-06-08T13:32:07.893Z,4.17
2019-06-08T13:34:39.218Z,4.10
2019-06-08T13:37:10.584Z,4.03
2019-06-08T13:39:40.818Z,3.40
2019-06-08T13:42:11.318Z,5.20
2019-06-08T13:44:41.573Z,4.27
2019-06-08T13:47:12.560Z,3.40
2019-06-08T13:49:43.343Z,4.43
2019-06-08T13:52:13.792Z,5.77
2019-06-08T13:54:44.160Z,3.80
2019-06-08T13:57:15.051Z,2.80
2019-06-08T13:59:45.277Z,3.50
2019-06-08T14:02:18.823Z,3.30
2019-06-08T14:04:49.142Z,2.77
2019-06-08T14:07:26.826Z,4.23
2019-06-08T14:09:52.690Z,4.03
2019-06-08T14:12:24.681Z,3.60
2019-06-08T14:14:58.237Z,4.10
2019-06-08T14:17:27.619Z,3.27
2019-06-08T14:19:59.261Z,3.70
2019-06-08T14:22:30.397Z,2.97
2019-06-08T14:25:00.878Z,4.30
2019-06-08T14:27:32.948Z,3.20
2019-06-08T14:30:03.338Z,3.37
2019-06-08T14:32:35.272Z,3.90
2019-06-08T14:35:05.597Z,3.10
2019-06-08T14:37:38.098Z,3.27
2019-06-08T14:40:09.302Z,3.03
2019-06-08T14:42:40.192Z,3.10
2019-06-08T14:45:11.109Z,2.87
2019-06-08T14:47:42.900Z,2.70
2019-06-08T14:50:13.475Z,2.80
2019-06-08T14:52:43.625Z,3.07
2019-06-08T14:55:14.532Z,3.07
2019-06-08T14:57:44.805Z,3.50
2019-06-08T15:00:19.426Z,3.10
2019-06-08T15:02:50.086Z,3.97
2019-06-08T15:05:21.510Z,3.37
2019-06-08T15:07:51.889Z,3.10
2019-06-08T15:10:23.313Z,2.57
2019-06-08T15:12:53.771Z,4.10
2019-06-08T15:15:25.694Z,2.83
2019-06-08T15:17:58.266Z,3.17
2019-06-08T15:20:28.720Z,3.67
2019-06-08T15:22:58.976Z,3.57
2019-06-08T15:25:31.232Z,3.60
2019-06-08T15:28:02.380Z,2.97
2019-06-08T15:30:32.863Z,3.43
2019-06-08T15:33:05.397Z,3.73
2019-06-08T15:35:38.231Z,3.17
2019-06-08T15:38:08.636Z,3.70
2019-06-08T15:40:39.327Z,3.33
2019-06-08T15:43:09.538Z,3.60
2019-06-08T15:45:39.858Z,3.30
2019-06-08T15:48:10.253Z,4.13
2019-06-08T15:50:40.621Z,3.30
2019-06-08T15:53:10.887Z,2.80
2019-06-08T15:55:41.673Z,3.40
2019-06-08T15:58:12.844Z,4.10
2019-06-08T16:00:42.965Z,2.73
2019-06-08T16:03:13.393Z,3.03
2019-06-08T16:05:43.900Z,4.10
2019-06-08T16:08:14.122Z,3.20
2019-06-08T16:10:45.121Z,3.43
2019-06-08T16:13:15.611Z,3.67
2019-06-08T16:15:45.733Z,4.07
2019-06-08T16:18:16.370Z,3.00
2019-06-08T16:20:46.729Z,4.20
2019-06-08T16:23:17.292Z,3.13
2019-06-08T16:25:48.200Z,3.67
2019-06-08T16:28:18.724Z,3.90
2019-06-08T16:30:49.070Z,4.20
2019-06-08T16:33:19.484Z,3.53
2019-06-08T16:35:50.077Z,3.37
2019-06-08T16:38:20.575Z,3.07
2019-06-08T16:40:50.925Z,3.27
2019-06-08T16:43:21.409Z,3.10
2019-06-08T16:45:51.870Z,3.63
2019-06-08T16:48:22.193Z,3.03
2019-06-08T16:50:52.796Z,3.70
2019-06-08T16:53:23.090Z,3.30
2019-06-08T16:55:53.325Z,3.40
2019-06-08T16:58:24.526Z,2.70
2019-06-08T17:00:54.839Z,3.40
2019-06-08T17:03:25.240Z,2.67
2019-06-08T17:05:56.794Z,6.67
2019-06-08T17:08:33.779Z,2.70
2019-06-08T17:11:02.062Z,3.00
2019-06-08T17:13:33.973Z,2.90
2019-06-08T17:16:04.492Z,2.40
2019-06-08T17:18:36.243Z,2.83
2019-06-08T17:21:07.089Z,2.00
2019-06-08T17:23:38.458Z,1.97
2019-06-08T17:26:16.820Z,2.00
2019-06-08T17:28:46.984Z,1.93
2019-06-08T17:31:17.157Z,2.80
2019-06-08T17:33:47.526Z,3.50
2019-06-08T17:36:17.747Z,2.07
2019-06-08T17:38:48.154Z,1.90
2019-06-08T17:41:18.513Z,2.03
2019-06-08T17:43:48.904Z,2.27
2019-06-08T17:46:19.124Z,2.53
2019-06-08T17:48:49.563Z,1.83
2019-06-08T17:51:19.670Z,2.37
2019-06-08T17:53:50.051Z,1.80
2019-06-08T17:56:20.280Z,1.87
2019-06-08T17:58:50.704Z,2.33
2019-06-08T18:01:20.942Z,3.37
2019-06-08T18:03:51.445Z,2.53
2019-06-08T18:06:22.235Z,3.00
2019-06-08T18:08:52.488Z,2.73
2019-06-08T18:11:22.563Z,2.53
2019-06-08T18:13:52.689Z,1.80
2019-06-08T18:16:22.961Z,5.90
2019-06-08T18:18:53.356Z,2.47
2019-06-08T18:21:23.664Z,1.70
2019-06-08T18:23:57.089Z,2.20
2019-06-08T18:26:27.812Z,2.80
2019-06-08T18:28:58.273Z,2.13
2019-06-08T18:31:28.670Z,2.27
2019-06-08T18:34:01.983Z,2.40
2019-06-08T18:36:30.913Z,2.00
2019-06-08T18:39:01.177Z,2.53
2019-06-08T18:41:31.373Z,2.13
2019-06-08T18:44:01.533Z,2.57
2019-06-08T18:46:31.968Z,2.00
2019-06-08T18:49:02.441Z,1.60
2019-06-08T18:51:32.576Z,2.53
2019-06-08T18:54:11.751Z,2.80
2019-06-08T18:56:38.039Z,1.60
2019-06-08T18:59:07.726Z,1.57
2019-06-08T19:01:39.371Z,1.90
2019-06-08T19:04:10.326Z,1.73
2019-06-08T19:06:42.307Z,2.10
2019-06-08T19:09:12.570Z,2.03
2019-06-08T19:11:43.564Z,2.00
2019-06-08T19:14:14.107Z,1.73
2019-06-08T19:16:46.891Z,1.70
2019-06-08T19:19:16.433Z,2.53
2019-06-08T19:21:50.207Z,1.80
2019-06-08T19:24:18.494Z,1.83
2019-06-08T19:26:49.063Z,1.40
2019-06-08T19:29:39.746Z,1.90
2019-06-08T19:32:10.705Z,3.17
2019-06-08T19:34:43.351Z,1.90
2019-06-08T19:37:13.208Z,2.03
2019-06-08T19:39:45.950Z,1.90
2019-06-08T19:42:17.565Z,1.87
2019-06-08T19:44:59.233Z,2.97
2019-06-08T19:47:23.126Z,3.20
2019-06-08T19:49:57.781Z,2.23
2019-06-08T19:52:30.001Z,2.70
2019-06-08T19:55:00.582Z,2.50
2019-06-08T19:57:32.521Z,2.70
2019-06-08T20:00:03.082Z,2.60
2019-06-08T20:02:33.579Z,3.20
2019-06-08T20:05:04.250Z,2.60
2019-06-08T20:07:34.337Z,3.30
2019-06-08T20:10:07.533Z,3.20
2019-06-08T20:12:37.466Z,2.80
2019-06-08T20:15:08.686Z,3.30
2019-06-08T20:17:48.883Z,1.90
2019-06-08T20:20:20.212Z,2.13
2019-06-08T20:22:55.022Z,2.90
2019-06-08T20:25:24.932Z,2.13
2019-06-08T20:27:55.618Z,2.93
2019-06-08T20:30:28.202Z,2.30
2019-06-08T20:32:59.688Z,2.60
2019-06-08T20:35:29.966Z,2.83
2019-06-08T20:38:00.450Z,2.87
2019-06-08T20:40:30.860Z,1.57
2019-06-08T20:43:01.175Z,1.67
2019-06-08T20:45:31.419Z,1.40
2019-06-08T20:48:01.702Z,1.90
2019-06-08T20:50:32.276Z,1.30
2019-06-08T20:53:02.799Z,1.60
2019-06-08T20:55:32.907Z,1.70
2019-06-08T20:58:03.796Z,1.30
2019-06-08T21:00:34.153Z,1.57
2019-06-08T21:03:07.955Z,1.40
2019-06-08T21:05:37.667Z,1.40
2019-06-08T21:08:08.505Z,1.50
2019-06-08T21:10:38.848Z,1.40
2019-06-08T21:13:09.469Z,1.37
2019-06-08T21:15:39.776Z,1.60
2019-06-08T21:18:10.316Z,1.20
2019-06-08T21:20:41.037Z,1.40
2019-06-08T21:23:11.548Z,1.30
2019-06-08T21:25:41.724Z,1.40
2019-06-08T21:28:11.824Z,1.80
2019-06-08T21:30:42.344Z,1.23
2019-06-08T21:33:12.718Z,1.40
2019-06-08T21:35:43.039Z,1.40
2019-06-08T21:38:23.356Z,1.60
2019-06-08T21:40:49.563Z,1.70
2019-06-08T21:43:18.445Z,1.53
2019-06-08T21:45:51.107Z,1.57
2019-06-08T21:48:20.792Z,1.57
2019-06-08T21:50:53.423Z,1.60
2019-06-08T21:53:24.193Z,1.50
2019-06-08T21:55:54.568Z,1.30
2019-06-08T21:58:24.894Z,1.93
2019-06-08T22:00:58.064Z,1.70
2019-06-08T22:03:28.130Z,1.93
2019-06-08T22:05:58.943Z,1.63
2019-06-08T22:08:30.590Z,1.70
2019-06-08T22:11:01.173Z,1.70
2019-06-08T22:13:32.401Z,1.30
2019-06-08T22:16:04.308Z,1.70
2019-06-08T22:18:34.798Z,2.07
2019-06-08T22:21:05.280Z,1.40
2019-06-08T22:23:36.626Z,1.57
2019-06-08T22:26:08.374Z,1.40
2019-06-08T22:28:39.090Z,1.60
2019-06-08T22:31:09.619Z,1.47
2019-06-08T22:33:40.473Z,1.67
2019-06-08T22:36:10.823Z,1.60
2019-06-08T22:38:41.278Z,1.70
2019-06-08T22:41:12.772Z,1.70
2019-06-08T22:43:43.689Z,1.57
2019-06-08T22:46:13.909Z,1.70
2019-06-08T22:48:44.121Z,1.80
2019-06-08T22:51:14.756Z,1.60
2019-06-08T22:53:45.155Z,1.83
2019-06-08T22:56:18.111Z,1.70
2019-06-08T22:58:48.185Z,1.70
2019-06-08T23:01:19.014Z,1.67
2019-06-08T23:03:49.290Z,1.70
2019-06-08T23:06:20.515Z,1.63
2019-06-08T23:08:50.903Z,1.70
2019-06-08T23:11:21.240Z,1.70
2019-06-08T23:13:51.620Z,1.47
2019-06-08T23:16:22.459Z,1.50
2019-06-08T23:18:57.656Z,1.70
2019-06-08T23:21:27.569Z,1.60
2019-06-08T23:23:59.287Z,1.97
2019-06-08T23:26:29.777Z,2.10
2019-06-08T23:29:00.155Z,1.70
2019-06-08T23:31:30.320Z,2.20
2019-06-08T23:34:04.826Z,2.27
2019-06-08T23:36:48.494Z,1.80
2019-06-08T23:39:07.259Z,1.60
2019-06-08T23:41:37.988Z,1.90
2019-06-08T23:44:08.365Z,1.40
2019-06-08T23:46:38.593Z,2.03
2019-06-08T23:49:09.114Z,1.70
2019-06-08T23:51:39.779Z,1.60
2019-06-08T23:54:12.487Z,1.70
2019-06-08T23:56:42.029Z,1.47
2019-06-08T23:59:12.372Z,1.87
